Hlavní strana
METAR-TAF:

METAR-TAF

Letiště :

Fort McMurray, Alberta, Kanada

zeměpisná šířka: 56-39N, zeměpisná délka: 111-13W, výška: 369 m

Aktuální stav počasí

Zpráva byla vytvořena před 55 minutami, v 19:00 UTC
Jihojihovýchodní vítr 9 kt
Teplota 3°C
Vlhkost vzduchu 81%
Tlak 1013 hPa
Viditelnost: 14.5 km
Zataženo ve výšce 2600 ft

METAR: CYMM 231900Z AUTO 15009KT 9SM OVC026 03/M00 A2990 RMK SLP146

Čas: 13:55 (19:55 UTC)

Předpověď počasí

Zpráva byla vytvořena před 1 hodinou a 17 minutami, v 18:38 UTC
Předpověď platná od 23 v 19 UTC do 24 v 07 UTC
Jihojihovýchodní vítr 8 kt
Viditelnost: 10 km
Zataženo ve výšce 4000 ft
Dočasný
od 23 v 19 UTC do 23 v 20 UTC
Zataženo ve výšce 2000 ft
Změna
od 24 v 00 UTC do 24 v 02 UTC
Jihojihozápadní vítr 8 kt

TAF: CYMM 231838Z 2319/2407 16008KT P6SM OVC040 TEMPO 2319/2320 OVC020 BECMG 2400/2402 20008KT RMK FCST BASED ON AUTO OBS. NXT FCST BY 240100Z

Stav a předpovědi počasí z více než 4 000 letišť (zprávy METAR a TAF).

Červené a žluté tečky na mapě představují dostupné meteorologické stanice.

Když kurzor umístíte na tečku, zobrazí se název stanice.

Pak kliknutím zobrazíte stav a předpověď počasí.

Chcete-li změnit mapu, kliknutím na zelené tlačítko se znaménkem +mapu přiblížíte, kliknutím na zelené tlačítko se znaménkem – mapu oddálíte a kliknutím na zelené šipky přejdete na sousední mapy.


METAR-TAF: